Terminal Aerodrome Forecast
Issued by NWS

Home | Current Version | Previous Version | Graphics & Text | Print | Product List | Glossary On
Versions: 1 2 3 4 5 6 7 8 9 10 11 12 13 14 15 16 17 18 19 20 21
000
FTUS43 KGRB 261134
TAFATW
TAF
KATW 261134Z 2612/2712 18008G16KT P6SM SCT025 BKN050
      TEMPO 2612/2616 5SM -SN BKN025
     FM261600 22013G22KT P6SM VCSH SCT025 BKN040
     FM270000 24011KT P6SM SCT040 BKN120
     FM270400 26004KT P6SM SCT050 BKN090=

USA.gov is the U.S. government's official web portal to all federal, state and local government web resources and services.